createdAt,value
2019-05-18T00:00:55.467Z,12.63
2019-05-18T00:03:24.252Z,11.73
2019-05-18T00:05:53.009Z,12.37
2019-05-18T00:08:21.826Z,11.77
2019-05-18T00:10:50.614Z,13.30
2019-05-18T00:13:19.362Z,12.77
2019-05-18T00:15:48.123Z,13.17
2019-05-18T00:18:16.870Z,14.50
2019-05-18T00:20:45.621Z,13.00
2019-05-18T00:23:14.414Z,13.10
2019-05-18T00:25:44.177Z,12.93
2019-05-18T00:28:12.916Z,12.83
2019-05-18T00:30:41.655Z,13.00
2019-05-18T00:33:10.399Z,13.07
2019-05-18T00:35:39.174Z,13.40
2019-05-18T00:38:07.974Z,12.20
2019-05-18T00:40:36.747Z,11.07
2019-05-18T00:43:05.561Z,12.00
2019-05-18T00:45:34.332Z,11.30
2019-05-18T00:48:03.082Z,11.40
2019-05-18T00:50:31.822Z,10.27
2019-05-18T00:53:00.680Z,10.67
2019-05-18T00:55:29.928Z,11.07
2019-05-18T00:57:58.659Z,10.30
2019-05-18T01:00:27.397Z,12.07
2019-05-18T01:02:56.183Z,11.43
2019-05-18T01:05:24.917Z,10.67
2019-05-18T01:07:53.679Z,10.67
2019-05-18T01:10:22.586Z,11.13
2019-05-18T01:12:51.349Z,10.47
2019-05-18T01:15:20.081Z,10.13
2019-05-18T01:17:56.830Z,10.57
2019-05-18T01:20:19.487Z,10.67
2019-05-18T01:22:48.325Z,10.83
2019-05-18T01:25:17.202Z,10.17
2019-05-18T01:27:46.903Z,11.03
2019-05-18T01:30:15.770Z,10.20
2019-05-18T01:32:44.586Z,10.03
2019-05-18T01:35:13.349Z,10.67
2019-05-18T01:37:42.096Z,10.30
2019-05-18T01:40:11.877Z,10.03
2019-05-18T01:42:40.638Z,10.87
2019-05-18T01:45:16.868Z,11.13
2019-05-18T01:47:40.182Z,10.23
2019-05-18T01:50:09.243Z,11.03
2019-05-18T01:52:38.169Z,11.20
2019-05-18T01:55:07.679Z,11.03
2019-05-18T01:57:36.494Z,10.77
2019-05-18T02:00:08.823Z,9.60
2019-05-18T02:02:37.562Z,9.67
2019-05-18T02:05:06.910Z,9.70
2019-05-18T02:07:35.664Z,10.27
2019-05-18T02:10:05.727Z,9.40
2019-05-18T02:12:34.544Z,9.10
2019-05-18T02:15:03.870Z,10.37
2019-05-18T02:17:32.671Z,9.00
2019-05-18T02:20:01.423Z,8.97
2019-05-18T02:22:30.201Z,9.93
2019-05-18T02:24:58.954Z,9.23
2019-05-18T02:27:27.683Z,8.90
2019-05-18T02:29:58.046Z,8.87
2019-05-18T02:32:26.867Z,8.13
2019-05-18T02:34:55.688Z,8.47
2019-05-18T02:37:24.434Z,8.13
2019-05-18T02:39:54.865Z,7.93
2019-05-18T02:42:23.660Z,8.10
2019-05-18T02:44:52.471Z,7.17
2019-05-18T02:47:21.287Z,7.70
2019-05-18T02:49:50.043Z,7.93
2019-05-18T02:52:18.858Z,7.63
2019-05-18T02:54:47.716Z,6.93
2019-05-18T02:57:16.472Z,8.23
2019-05-18T02:59:45.222Z,7.73
2019-05-18T03:02:13.959Z,7.77
2019-05-18T03:04:42.761Z,7.67
2019-05-18T03:07:11.626Z,7.80
2019-05-18T03:09:40.339Z,7.93
2019-05-18T03:12:09.192Z,8.07
2019-05-18T03:14:37.950Z,8.67
2019-05-18T03:17:06.704Z,8.87
2019-05-18T03:19:35.460Z,8.67
2019-05-18T03:22:04.352Z,8.03
2019-05-18T03:24:33.082Z,8.17
2019-05-18T03:27:01.921Z,8.70
2019-05-18T03:29:30.633Z,8.77
2019-05-18T03:32:00.945Z,8.70
2019-05-18T03:34:30.177Z,8.50
2019-05-18T03:36:58.912Z,9.03
2019-05-18T03:39:27.674Z,8.03
2019-05-18T03:41:56.418Z,7.97
2019-05-18T03:44:25.169Z,8.07
2019-05-18T03:46:53.903Z,8.20
2019-05-18T03:49:27.087Z,8.60
2019-05-18T03:51:53.118Z,8.80
2019-05-18T03:54:21.864Z,9.00
2019-05-18T03:56:51.487Z,8.53
2019-05-18T03:59:20.251Z,9.00
2019-05-18T04:01:49.001Z,8.23
2019-05-18T04:04:18.597Z,8.37
2019-05-18T04:06:47.447Z,9.23
2019-05-18T04:09:16.197Z,8.40
2019-05-18T04:11:45.058Z,8.27
2019-05-18T04:14:13.776Z,8.93
2019-05-18T04:16:42.536Z,7.97
2019-05-18T04:19:11.282Z,8.07
2019-05-18T04:21:40.038Z,9.23
2019-05-18T04:24:08.833Z,8.53
2019-05-18T04:26:37.963Z,8.10
2019-05-18T04:29:06.782Z,7.70
2019-05-18T04:31:35.488Z,7.90
2019-05-18T04:34:05.075Z,7.53
2019-05-18T04:36:33.846Z,7.00
2019-05-18T04:39:02.653Z,6.83
2019-05-18T04:41:31.410Z,7.00
2019-05-18T04:44:00.159Z,7.03
2019-05-18T04:46:29.034Z,6.47
2019-05-18T04:48:57.818Z,7.17
2019-05-18T04:51:26.575Z,7.30
2019-05-18T04:53:55.367Z,7.40
2019-05-18T04:56:24.163Z,7.07
2019-05-18T04:58:52.897Z,7.10
2019-05-18T05:01:21.788Z,7.20
2019-05-18T05:03:50.480Z,7.67
2019-05-18T05:06:19.217Z,6.93
2019-05-18T05:08:47.998Z,7.63
2019-05-18T05:11:16.748Z,7.10
2019-05-18T05:13:45.558Z,7.63
2019-05-18T05:16:14.343Z,10.93
2019-05-18T05:18:43.147Z,9.27
2019-05-18T05:21:11.896Z,8.43
2019-05-18T05:23:40.734Z,8.03
2019-05-18T05:26:09.570Z,8.67
2019-05-18T05:28:38.404Z,12.03
2019-05-18T05:31:07.174Z,11.87
2019-05-18T05:33:35.910Z,12.20
2019-05-18T05:36:05.678Z,8.97
2019-05-18T05:38:34.431Z,8.53
2019-05-18T05:41:03.267Z,8.90
2019-05-18T05:43:32.016Z,12.27
2019-05-18T05:46:00.752Z,9.97
2019-05-18T05:48:29.601Z,9.00
2019-05-18T05:50:58.369Z,8.70
2019-05-18T05:53:27.154Z,9.47
2019-05-18T05:55:55.939Z,10.00
2019-05-18T05:58:24.661Z,12.63
2019-05-18T06:00:53.381Z,12.80
2019-05-18T06:03:22.457Z,11.63
2019-05-18T06:05:51.204Z,10.33
2019-05-18T06:08:19.937Z,31.17
2019-05-18T06:10:48.807Z,17.87
2019-05-18T06:13:17.541Z,11.60
2019-05-18T06:15:46.291Z,10.17
2019-05-18T06:18:15.066Z,8.30
2019-05-18T06:20:51.542Z,10.10
2019-05-18T06:23:14.204Z,10.30
2019-05-18T06:25:43.095Z,11.60
2019-05-18T06:28:11.919Z,8.60
2019-05-18T06:30:40.649Z,8.17
2019-05-18T06:33:09.416Z,8.53
2019-05-18T06:35:38.190Z,7.83
2019-05-18T06:38:07.931Z,8.30
2019-05-18T06:40:36.678Z,8.23
2019-05-18T06:43:05.501Z,7.97
2019-05-18T06:45:34.232Z,7.83
2019-05-18T06:48:03.328Z,7.87
2019-05-18T06:50:32.528Z,8.27
2019-05-18T06:53:01.302Z,7.30
2019-05-18T06:55:30.050Z,8.40
2019-05-18T06:58:00.216Z,8.27
2019-05-18T07:00:29.043Z,7.97
2019-05-18T07:02:57.849Z,7.73
2019-05-18T07:05:26.602Z,9.00
2019-05-18T07:07:55.433Z,7.23
2019-05-18T07:10:24.158Z,7.23
2019-05-18T07:12:52.968Z,7.33
2019-05-18T07:15:21.887Z,7.43
2019-05-18T07:17:50.630Z,7.70
2019-05-18T07:20:19.557Z,7.40
2019-05-18T07:22:48.298Z,6.90
2019-05-18T07:25:17.274Z,7.47
2019-05-18T07:27:46.169Z,8.03
2019-05-18T07:30:15.454Z,5.90
2019-05-18T07:32:44.181Z,6.30
2019-05-18T07:35:14.032Z,5.93
2019-05-18T07:37:42.771Z,6.07
2019-05-18T07:40:12.590Z,4.60
2019-05-18T07:42:41.385Z,5.53
2019-05-18T07:45:10.342Z,4.87
2019-05-18T07:47:39.165Z,4.40
2019-05-18T07:50:08.139Z,4.63
2019-05-18T07:52:36.899Z,5.47
2019-05-18T07:55:07.330Z,5.50
2019-05-18T07:57:36.288Z,6.57
2019-05-18T08:00:06.040Z,7.13
2019-05-18T08:02:34.786Z,6.10
2019-05-18T08:05:04.748Z,5.17
2019-05-18T08:07:33.487Z,4.77
2019-05-18T08:10:02.228Z,4.30
2019-05-18T08:12:31.034Z,4.73
2019-05-18T08:14:59.904Z,4.03
2019-05-18T08:17:28.731Z,3.67
2019-05-18T08:19:57.582Z,3.60
2019-05-18T08:22:26.328Z,3.60
2019-05-18T08:24:55.074Z,3.80
2019-05-18T08:27:23.880Z,4.30
2019-05-18T08:29:52.619Z,4.30
2019-05-18T08:32:21.431Z,3.10
2019-05-18T08:34:50.227Z,3.60
2019-05-18T08:37:18.967Z,3.07
2019-05-18T08:39:47.701Z,2.93
2019-05-18T08:42:17.459Z,3.10
2019-05-18T08:44:46.189Z,3.00
2019-05-18T08:47:15.006Z,3.03
2019-05-18T08:50:03.123Z,3.37
2019-05-18T08:52:31.867Z,3.53
2019-05-18T08:55:00.607Z,3.20
2019-05-18T08:57:29.464Z,3.60
2019-05-18T08:59:58.221Z,3.60
2019-05-18T09:02:26.945Z,4.10
2019-05-18T09:04:55.710Z,3.47
2019-05-18T09:07:24.469Z,10.73
2019-05-18T09:09:53.247Z,6.77
2019-05-18T09:12:22.054Z,9.70
2019-05-18T09:14:50.773Z,8.73
2019-05-18T09:17:19.520Z,4.17
2019-05-18T09:19:48.384Z,3.47
2019-05-18T09:22:23.274Z,3.63
2019-05-18T09:24:47.586Z,2.70
2019-05-18T09:27:16.362Z,8.10
2019-05-18T09:29:45.098Z,6.17
2019-05-18T09:32:13.863Z,2.77
2019-05-18T09:34:42.598Z,2.93
2019-05-18T09:37:11.359Z,3.93
2019-05-18T09:39:40.113Z,2.53
2019-05-18T09:42:08.909Z,5.17
2019-05-18T09:44:38.617Z,4.30
2019-05-18T09:47:07.358Z,3.00
2019-05-18T09:49:36.149Z,3.40
2019-05-18T09:52:04.885Z,3.20
2019-05-18T09:54:33.649Z,2.50
2019-05-18T09:57:02.437Z,2.10
2019-05-18T09:59:31.183Z,2.83
2019-05-18T10:01:59.929Z,2.60
2019-05-18T10:04:28.808Z,2.77
2019-05-18T10:06:57.541Z,2.23
2019-05-18T10:09:26.365Z,2.73
2019-05-18T10:11:55.213Z,2.53
2019-05-18T10:14:23.942Z,2.23
2019-05-18T10:16:52.806Z,3.40
2019-05-18T10:19:21.609Z,2.73
2019-05-18T10:21:50.347Z,3.05
2019-05-18T10:24:19.095Z,2.30
2019-05-18T10:26:47.870Z,2.60
2019-05-18T10:29:16.689Z,2.40
2019-05-18T10:31:45.448Z,4.37
2019-05-18T10:34:14.241Z,2.40
2019-05-18T10:36:43.027Z,2.10
2019-05-18T10:39:11.762Z,2.30
2019-05-18T10:41:40.525Z,2.65
2019-05-18T10:44:09.351Z,2.58
2019-05-18T10:46:39.002Z,4.28
2019-05-18T10:49:07.832Z,4.87
2019-05-18T10:51:36.633Z,2.75
2019-05-18T10:54:05.447Z,3.17
2019-05-18T10:56:34.230Z,2.12
2019-05-18T10:59:03.028Z,4.10
2019-05-18T11:01:31.854Z,2.30
2019-05-18T11:04:00.682Z,3.40
2019-05-18T11:06:29.394Z,5.47
2019-05-18T11:08:58.205Z,10.25
2019-05-18T11:11:27.018Z,2.50
2019-05-18T11:13:55.828Z,3.20
2019-05-18T11:16:24.560Z,2.17
2019-05-18T11:18:53.327Z,6.40
2019-05-18T11:21:22.082Z,3.12
2019-05-18T11:23:50.844Z,36.38
2019-05-18T11:26:19.706Z,3.50
2019-05-18T11:28:48.450Z,2.40
2019-05-18T11:31:17.184Z,2.62
2019-05-18T11:33:45.959Z,2.37
2019-05-18T11:36:14.781Z,2.27
2019-05-18T11:38:43.530Z,2.27
2019-05-18T11:41:12.310Z,2.15
2019-05-18T11:43:41.067Z,1.98
2019-05-18T11:46:09.874Z,2.15
2019-05-18T11:48:39.557Z,2.10
2019-05-18T11:51:08.692Z,2.42
2019-05-18T11:53:37.616Z,2.60
2019-05-18T11:56:06.405Z,1.75
2019-05-18T11:58:35.330Z,2.12
2019-05-18T12:01:04.151Z,2.20
2019-05-18T12:03:32.932Z,2.42
2019-05-18T12:06:01.677Z,2.20
2019-05-18T12:08:30.421Z,1.95
2019-05-18T12:10:59.216Z,2.17
2019-05-18T12:13:28.090Z,1.95
2019-05-18T12:15:56.863Z,2.20
2019-05-18T12:18:25.723Z,2.22
2019-05-18T12:20:54.465Z,2.05
2019-05-18T12:23:23.202Z,2.05
2019-05-18T12:25:51.989Z,2.65
2019-05-18T12:28:20.733Z,2.42
2019-05-18T12:30:49.539Z,1.70
2019-05-18T12:33:18.328Z,2.55
2019-05-18T12:35:47.065Z,2.45
2019-05-18T12:38:15.850Z,2.00
2019-05-18T12:40:44.698Z,2.42
2019-05-18T12:43:13.520Z,3.05
2019-05-18T12:45:42.262Z,1.90
2019-05-18T12:48:11.051Z,2.40
2019-05-18T12:50:40.040Z,2.60
2019-05-18T12:53:08.794Z,2.17
2019-05-18T12:55:37.604Z,2.75
2019-05-18T12:58:06.351Z,1.85
2019-05-18T13:00:35.141Z,2.20
2019-05-18T13:03:03.976Z,2.10
2019-05-18T13:05:32.716Z,1.87
2019-05-18T13:08:01.531Z,2.70
2019-05-18T13:10:30.341Z,2.47
2019-05-18T13:12:59.078Z,2.10
2019-05-18T13:15:27.941Z,3.17
2019-05-18T13:17:56.677Z,2.67
2019-05-18T13:20:25.445Z,3.08
2019-05-18T13:22:54.241Z,4.05
2019-05-18T13:25:23.048Z,4.37
2019-05-18T13:27:51.783Z,3.33
2019-05-18T13:30:22.190Z,3.40
2019-05-18T13:32:51.001Z,4.40
2019-05-18T13:35:19.857Z,2.85
2019-05-18T13:37:48.652Z,2.37
2019-05-18T13:40:17.485Z,2.83
2019-05-18T13:42:46.228Z,2.90
2019-05-18T13:45:15.514Z,3.55
2019-05-18T13:47:44.249Z,2.85
2019-05-18T13:50:14.583Z,3.45
2019-05-18T13:52:44.363Z,2.83
2019-05-18T13:55:13.484Z,2.70
2019-05-18T13:57:42.239Z,2.65
2019-05-18T14:00:12.439Z,2.52
2019-05-18T14:02:41.352Z,3.15
2019-05-18T14:05:10.459Z,3.05
2019-05-18T14:07:39.242Z,2.95
2019-05-18T14:10:12.450Z,2.67
2019-05-18T14:12:40.868Z,3.00
2019-05-18T14:15:10.248Z,2.52
2019-05-18T14:17:38.996Z,3.20
2019-05-18T14:20:07.961Z,2.58
2019-05-18T14:22:36.743Z,2.72
2019-05-18T14:25:18.588Z,2.42
2019-05-18T14:27:39.652Z,2.55
2019-05-18T14:30:09.418Z,2.67
2019-05-18T14:32:38.292Z,2.75
2019-05-18T14:35:08.305Z,3.35
2019-05-18T14:37:37.094Z,3.92
2019-05-18T14:40:09.894Z,3.40
2019-05-18T14:42:38.617Z,3.40
2019-05-18T14:45:10.731Z,2.80
2019-05-18T14:47:39.566Z,2.87
2019-05-18T14:50:08.589Z,2.65
2019-05-18T14:52:37.415Z,2.87
2019-05-18T14:55:07.255Z,3.02
2019-05-18T14:57:36.070Z,2.55
2019-05-18T15:00:06.337Z,2.02
2019-05-18T15:02:35.104Z,2.30
2019-05-18T15:05:05.109Z,2.30
2019-05-18T15:07:33.963Z,2.00
2019-05-18T15:10:02.771Z,2.60
2019-05-18T15:12:31.530Z,2.85
2019-05-18T15:15:00.300Z,2.40
2019-05-18T15:17:29.121Z,3.10
2019-05-18T15:19:57.853Z,3.35
2019-05-18T15:22:26.699Z,2.62
2019-05-18T15:24:55.462Z,2.60
2019-05-18T15:27:24.200Z,2.72
2019-05-18T15:29:52.984Z,3.17
2019-05-18T15:32:21.792Z,3.77
2019-05-18T15:34:50.539Z,2.75
2019-05-18T15:37:19.326Z,2.98
2019-05-18T15:39:48.137Z,2.98
2019-05-18T15:42:16.884Z,3.85
2019-05-18T15:44:45.770Z,3.80
2019-05-18T15:47:14.497Z,2.90
2019-05-18T15:49:43.247Z,3.52
2019-05-18T15:52:12.060Z,3.83
2019-05-18T15:54:40.742Z,3.80
2019-05-18T15:57:10.407Z,4.00
2019-05-18T15:59:39.182Z,3.47
2019-05-18T16:02:08.000Z,4.05
2019-05-18T16:04:36.789Z,3.65
2019-05-18T16:07:05.661Z,3.70
2019-05-18T16:09:34.411Z,4.25
2019-05-18T16:12:03.154Z,3.83
2019-05-18T16:14:32.037Z,4.42
2019-05-18T16:17:00.768Z,4.55
2019-05-18T16:19:29.572Z,4.20
2019-05-18T16:21:58.431Z,4.15
2019-05-18T16:24:27.210Z,5.15
2019-05-18T16:26:55.939Z,4.70
2019-05-18T16:29:24.730Z,4.62
2019-05-18T16:31:53.488Z,4.72
2019-05-18T16:34:22.241Z,5.22
2019-05-18T16:36:51.014Z,5.22
2019-05-18T16:39:19.768Z,5.60
2019-05-18T16:41:48.567Z,5.03
2019-05-18T16:44:17.365Z,5.17
2019-05-18T16:46:46.089Z,5.47
2019-05-18T16:49:14.845Z,5.10
2019-05-18T16:51:43.656Z,5.37
2019-05-18T16:54:12.400Z,5.20
2019-05-18T16:56:41.214Z,6.43
2019-05-18T16:59:10.903Z,5.70
2019-05-18T17:01:39.724Z,6.10
2019-05-18T17:04:08.533Z,6.30
2019-05-18T17:06:37.411Z,6.80
2019-05-18T17:09:06.261Z,6.33
2019-05-18T17:11:35.045Z,5.07
2019-05-18T17:14:04.057Z,6.65
2019-05-18T17:16:32.795Z,6.63
2019-05-18T17:19:01.601Z,5.80
2019-05-18T17:21:30.381Z,6.13
2019-05-18T17:24:00.669Z,6.03
2019-05-18T17:26:29.442Z,6.37
2019-05-18T17:29:00.149Z,6.00
2019-05-18T17:31:28.580Z,6.03
2019-05-18T17:33:57.334Z,7.00
2019-05-18T17:36:26.076Z,8.03
2019-05-18T17:38:54.858Z,6.63
2019-05-18T17:41:23.593Z,6.50
2019-05-18T17:43:52.396Z,6.20
2019-05-18T17:46:21.132Z,6.70
2019-05-18T17:48:49.950Z,6.50
2019-05-18T17:51:18.801Z,7.13
2019-05-18T17:53:47.577Z,6.73
2019-05-18T17:56:16.320Z,6.77
2019-05-18T17:58:45.133Z,6.30
2019-05-18T18:01:14.840Z,6.17
2019-05-18T18:03:43.572Z,6.60
2019-05-18T18:06:12.318Z,6.73
2019-05-18T18:08:41.146Z,6.60
2019-05-18T18:11:11.899Z,6.87
2019-05-18T18:13:40.295Z,6.63
2019-05-18T18:16:09.179Z,7.43
2019-05-18T18:18:38.526Z,8.33
2019-05-18T18:21:07.284Z,9.67
2019-05-18T18:23:36.085Z,9.73
2019-05-18T18:26:04.845Z,9.30
2019-05-18T18:28:33.685Z,9.07
2019-05-18T18:31:02.511Z,9.63
2019-05-18T18:33:34.198Z,8.93
2019-05-18T18:36:03.078Z,11.03
2019-05-18T18:38:31.835Z,11.83
2019-05-18T18:41:00.595Z,12.30
2019-05-18T18:43:29.343Z,12.20
2019-05-18T18:45:58.221Z,11.97
2019-05-18T18:48:27.027Z,10.23
2019-05-18T18:50:55.812Z,10.53
2019-05-18T18:53:24.565Z,10.20
2019-05-18T18:55:53.309Z,10.13
2019-05-18T18:58:22.146Z,9.53
2019-05-18T19:00:50.860Z,9.27
2019-05-18T19:03:20.485Z,9.17
2019-05-18T19:05:49.249Z,9.67
2019-05-18T19:08:17.981Z,9.57
2019-05-18T19:10:46.786Z,9.83
2019-05-18T19:13:15.551Z,9.13
2019-05-18T19:15:44.355Z,8.80
2019-05-18T19:18:13.098Z,8.40
2019-05-18T19:20:41.850Z,8.40
2019-05-18T19:23:10.613Z,8.80
2019-05-18T19:25:39.481Z,8.40
2019-05-18T19:28:08.226Z,8.40
2019-05-18T19:30:36.987Z,9.33
2019-05-18T19:33:05.733Z,8.63
2019-05-18T19:35:34.468Z,8.57
2019-05-18T19:38:03.279Z,8.63
2019-05-18T19:40:32.030Z,8.70
2019-05-18T19:43:00.784Z,8.63
2019-05-18T19:45:29.544Z,10.20
2019-05-18T19:48:00.181Z,8.53
2019-05-18T19:50:28.958Z,9.83
2019-05-18T19:52:57.765Z,8.83
2019-05-18T19:55:26.510Z,9.60
2019-05-18T19:58:08.171Z,9.00
2019-05-18T20:00:25.690Z,9.27
2019-05-18T20:02:54.426Z,10.67
2019-05-18T20:05:24.090Z,9.33
2019-05-18T20:07:52.815Z,8.80
2019-05-18T20:10:21.687Z,9.03
2019-05-18T20:12:50.439Z,9.17
2019-05-18T20:15:19.263Z,8.63
2019-05-18T20:17:48.027Z,9.47
2019-05-18T20:20:17.129Z,9.70
2019-05-18T20:22:45.920Z,9.97
2019-05-18T20:25:14.954Z,9.47
2019-05-18T20:27:43.725Z,10.30
2019-05-18T20:30:12.652Z,9.87
2019-05-18T20:32:41.432Z,9.90
2019-05-18T20:35:30.966Z,8.60
2019-05-18T20:37:59.738Z,8.63
2019-05-18T20:40:28.470Z,9.53
2019-05-18T20:42:57.215Z,9.20
2019-05-18T20:45:26.048Z,10.33
2019-05-18T20:47:54.817Z,10.70
2019-05-18T20:50:23.647Z,10.10
2019-05-18T20:52:52.465Z,9.10
2019-05-18T20:55:21.241Z,9.30
2019-05-18T20:57:50.079Z,9.27
2019-05-18T21:00:19.250Z,8.73
2019-05-18T21:02:48.024Z,8.63
2019-05-18T21:05:17.545Z,8.50
2019-05-18T21:07:47.181Z,8.53
2019-05-18T21:10:16.032Z,8.47
2019-05-18T21:12:44.768Z,9.03
2019-05-18T21:15:13.873Z,9.13
2019-05-18T21:17:42.716Z,8.87
2019-05-18T21:20:11.776Z,8.87
2019-05-18T21:22:40.511Z,8.77
2019-05-18T21:25:09.455Z,8.30
2019-05-18T21:27:38.282Z,9.73
2019-05-18T21:30:07.394Z,8.87
2019-05-18T21:32:36.138Z,8.77
2019-05-18T21:35:07.219Z,8.50
2019-05-18T21:37:35.964Z,9.50
2019-05-18T21:40:05.890Z,8.80
2019-05-18T21:42:34.663Z,9.33
2019-05-18T21:45:03.874Z,8.57
2019-05-18T21:47:32.697Z,9.50
2019-05-18T21:50:01.538Z,9.03
2019-05-18T21:52:30.483Z,8.87
2019-05-18T21:54:59.239Z,8.83
2019-05-18T21:57:28.066Z,8.47
2019-05-18T21:59:56.813Z,8.57
2019-05-18T22:02:25.560Z,9.93
2019-05-18T22:04:54.316Z,9.33
2019-05-18T22:07:23.073Z,9.77
2019-05-18T22:09:53.766Z,12.70
2019-05-18T22:12:22.915Z,9.87
2019-05-18T22:14:51.605Z,10.30
2019-05-18T22:17:20.376Z,10.13
2019-05-18T22:19:49.243Z,9.77
2019-05-18T22:22:18.072Z,9.13
2019-05-18T22:24:46.830Z,9.07
2019-05-18T22:27:15.579Z,9.73
2019-05-18T22:29:44.315Z,9.80
2019-05-18T22:32:13.186Z,9.87
2019-05-18T22:34:41.955Z,10.30
2019-05-18T22:37:10.704Z,9.83
2019-05-18T22:39:39.437Z,9.37
2019-05-18T22:42:08.198Z,10.87
2019-05-18T22:44:37.023Z,10.33
2019-05-18T22:47:05.768Z,10.20
2019-05-18T22:49:34.538Z,9.73
2019-05-18T22:52:03.284Z,9.77
2019-05-18T22:54:32.096Z,11.03
2019-05-18T22:57:00.844Z,10.70
2019-05-18T22:59:29.525Z,10.13
2019-05-18T23:01:58.340Z,10.30
2019-05-18T23:04:27.183Z,10.47
2019-05-18T23:06:55.912Z,10.77
2019-05-18T23:09:24.670Z,10.67
2019-05-18T23:11:54.304Z,10.27
2019-05-18T23:14:23.113Z,10.37
2019-05-18T23:16:51.930Z,10.90
2019-05-18T23:19:20.682Z,10.00
2019-05-18T23:21:49.495Z,11.57
2019-05-18T23:24:18.238Z,12.13
2019-05-18T23:26:46.991Z,12.90
2019-05-18T23:29:15.796Z,13.20
2019-05-18T23:31:44.538Z,13.50
2019-05-18T23:34:13.268Z,13.27
2019-05-18T23:36:42.101Z,13.13
2019-05-18T23:39:10.844Z,13.67
2019-05-18T23:41:39.670Z,14.70
2019-05-18T23:44:08.419Z,14.07
2019-05-18T23:46:37.252Z,13.20
2019-05-18T23:49:10.806Z,13.47
2019-05-18T23:51:36.415Z,13.83
2019-05-18T23:54:05.238Z,14.27
2019-05-18T23:56:34.054Z,14.47
2019-05-18T23:59:03.505Z,12.93
